| time (UTC) | temp F | wind direction | speed MPH | gust MPH | rain 1hr in | rain 24hr in | rain mn in | humidity % | barometer mb |
| 20260509204537 | 88 | 181 | 0.0 | 3.0 | 0.00 | 0.00 | 0.00 | 35 | 1008.3 |
| 20260509203033 | 87 | 164 | 1.0 | 3.0 | 0.00 | 0.00 | 0.00 | 38 | 1008.5 |
| 20260509201532 | 88 | 85 | 0.0 | 3.0 | 0.00 | 0.00 | 0.00 | 37 | 1008.7 |
| 20260509200043 | 87 | 0 | 1.0 | 4.0 | 0.00 | 0.00 | 0.00 | 39 | 1008.8 |
| 20260509194538 | 88 | 108 | 0.0 | 3.0 | 0.00 | 0.00 | 0.00 | 40 | 1009.1 |
| 20260509193037 | 88 | 0 | 0.0 | 2.0 | 0.00 | 0.00 | 0.00 | 42 | 1009.2 |
| 20260509191535 | 88 | 135 | 0.0 | 3.0 | 0.00 | 0.00 | 0.00 | 40 | 1009.2 |
| 20260509190033 | 89 | 173 | 1.0 | 2.0 | 0.00 | 0.00 | 0.00 | 35 | 1009.4 |
| 20260509184554 | 89 | 0 | 0.0 | 2.0 | 0.00 | 0.00 | 0.00 | 36 | 1009.5 |
| 20260509183039 | 87 | 0 | 0.0 | 3.0 | 0.00 | 0.00 | 0.00 | 39 | 1009.6 |
| 20260509181543 | 86 | 148 | 0.0 | 2.0 | 0.00 | 0.00 | 0.00 | 40 | 1009.8 |
| 20260509180038 | 87 | 154 | 0.0 | 2.0 | 0.00 | 0.00 | 0.00 | 38 | 1009.9 |
| 20260509174536 | 87 | 0 | 0.0 | 2.0 | 0.00 | 0.00 | 0.00 | 38 | 1010.1 |
| 20260509173035 | 86 | 160 | 0.0 | 2.0 | 0.00 | 0.00 | 0.00 | 40 | 1010.1 |
| 20260509171539 | 85 | 169 | 1.0 | 4.0 | 0.00 | 0.00 | 0.00 | 42 | 1010.3 |
| 20260509170032 | 85 | 103 | 0.0 | 2.0 | 0.00 | 0.00 | 0.00 | 41 | 1010.5 |
| 20260509164537 | 83 | 155 | 0.0 | 5.0 | 0.00 | 0.00 | 0.00 | 42 | 1010.5 |
| 20260509163044 | 83 | 115 | 0.0 | 4.0 | 0.00 | 0.00 | 0.00 | 41 | 1010.5 |
| 20260509161534 | 82 | 134 | 1.0 | 6.0 | 0.00 | 0.00 | 0.00 | 42 | 1010.4 |
| 20260509160032 | 81 | 143 | 0.0 | 4.0 | 0.00 | 0.00 | 0.00 | 46 | 1010.4 |
| 20260509154544 | 80 | 152 | 1.0 | 3.0 | 0.00 | 0.00 | 0.00 | 56 | 1010.3 |
| 20260509153033 | 78 | 103 | 1.0 | 3.0 | 0.00 | 0.00 | 0.00 | 62 | 1010.3 |
| 20260509151538 | 77 | 0 | 0.0 | 3.0 | 0.00 | 0.00 | 0.00 | 63 | 1010.4 |
| 20260509150037 | 76 | 165 | 0.0 | 3.0 | 0.00 | 0.00 | 0.00 | 63 | 1010.4 |
| 20260509144532 | 75 | 0 | 0.0 | 4.0 | 0.00 | 0.00 | 0.00 | 67 | 1010.4 |
| 20260509143045 | 74 | 0 | 0.0 | 1.0 | 0.00 | 0.00 | 0.00 | 69 | 1010.4 |
| 20260509141541 | 73 | 0 | 0.0 | 1.0 | 0.00 | 0.00 | 0.00 | 75 | 1010.3 |
| 20260509140040 | 72 | 0 | 0.0 | 1.0 | 0.00 | 0.00 | 0.00 | 78 | 1010.5 |
| 20260509134537 | 71 | 0 | 0.0 | 1.0 | 0.00 | 0.00 | 0.00 | 79 | 1010.3 |
| 20260509133038 | 70 | 0 | 0.0 | 1.0 | 0.00 | 0.00 | 0.00 | 80 | 1010.2 |
| 20260509131540 | 69 | 143 | 0.0 | 2.0 | 0.00 | 0.00 | 0.00 | 81 | 1010.3 |
| 20260509130042 | 68 | 0 | 0.0 | 1.0 | 0.00 | 0.00 | 0.00 | 82 | 1010.3 |
| 20260509124538 | 68 | 0 | 0.0 | 0.0 | 0.00 | 0.18 | 0.00 | 82 | 1010.2 |
| 20260509123045 | 68 | 0 | 0.0 | 1.0 | 0.00 | 0.18 | 0.00 | 82 | 1010.2 |
| 20260509121534 | 68 | 0 | 0.0 | 0.0 | 0.00 | 0.18 | 0.00 | 82 | 1010.2 |
| 20260509120033 | 67 | 139 | 0.0 | 1.0 | 0.00 | 0.18 | 0.00 | 81 | 1010.0 |
| 20260509114535 | 68 | 0 | 0.0 | 3.0 | 0.00 | 0.20 | 0.00 | 80 | 1009.7 |
| 20260509113038 | 68 | 140 | 0.0 | 4.0 | 0.00 | 0.20 | 0.00 | 79 | 1009.6 |
| 20260509111542 | 68 | 0 | 0.0 | 1.0 | 0.00 | 0.20 | 0.00 | 79 | 1009.1 |
| 20260509110033 | 68 | 0 | 0.0 | 1.0 | 0.00 | 0.20 | 0.00 | 78 | 1008.8 |
| 20260509104536 | 68 | 0 | 0.0 | 0.0 | 0.00 | 0.30 | 0.00 | 77 | 1008.7 |
| 20260509103045 | 68 | 0 | 0.0 | 0.0 | 0.00 | 0.30 | 0.00 | 76 | 1008.5 |
| 20260509101539 | 69 | 0 | 0.0 | 0.0 | 0.00 | 0.30 | 0.00 | 75 | 1008.4 |
| 20260509100045 | 69 | 0 | 0.0 | 0.0 | 0.00 | 0.30 | 0.00 | 73 | 1008.4 |
| 20260509094534 | 70 | 0 | 0.0 | 0.0 | 0.00 | 0.40 | 0.00 | 72 | 1008.1 |
| 20260509093035 | 71 | 0 | 0.0 | 1.0 | 0.00 | 0.40 | 0.00 | 72 | 1007.8 |
| 20260509091538 | 71 | 0 | 0.0 | 2.0 | 0.00 | 0.40 | 0.00 | 73 | 1007.6 |
| 20260509090036 | 72 | 0 | 0.0 | 4.0 | 0.00 | 0.40 | 0.00 | 73 | 1007.8 |
| 20260509084532 | 72 | 153 | 0.0 | 19.0 | 0.00 | 0.40 | 0.00 | 74 | 1007.6 |
| 20260509083041 | 70 | 311 | 3.0 | 11.0 | 0.00 | 0.40 | 0.00 | 77 | 1004.9 |
| 20260509081539 | 70 | 12 | 4.0 | 13.0 | 0.00 | 0.40 | 0.00 | 78 | 1005.2 |
| 20260509080034 | 70 | 359 | 3.0 | 11.0 | 0.00 | 0.40 | 0.00 | 79 | 1006.8 |
| 20260509074541 | 70 | 91 | 2.0 | 8.0 | 0.00 | 0.69 | 0.00 | 79 | 1008.1 |
| 20260509073038 | 70 | 77 | 0.0 | 5.0 | 0.00 | 0.69 | 0.00 | 80 | 1009.0 |
| 20260509071532 | 69 | 68 | 2.0 | 4.0 | 0.00 | 0.69 | 0.00 | 82 | 1009.2 |
| 20260509070034 | 69 | 0 | 0.0 | 3.0 | 0.00 | 0.69 | 0.00 | 83 | 1009.9 |
| 20260509064533 | 68 | 0 | 0.0 | 1.0 | 0.00 | 0.69 | 0.00 | 83 | 1010.3 |
| 20260509063036 | 68 | 0 | 0.0 | 1.0 | 0.00 | 0.69 | 0.00 | 82 | 1010.4 |
| 20260509061550 | 68 | 0 | 0.0 | 0.0 | 0.00 | 0.69 | 0.00 | 81 | 1010.4 |
| 20260509060036 | 68 | 0 | 0.0 | 0.0 | 0.00 | 0.69 | 0.00 | 80 | 1010.3 |
| 20260509054541 | 69 | 0 | 0.0 | 1.0 | 0.00 | 0.69 | 0.00 | 80 | 1010.2 |
| 20260509053051 | 69 | 0 | 0.0 | 0.0 | 0.00 | 0.69 | 0.00 | 79 | 1011.0 |
| 20260509051534 | 70 | 0 | 0.0 | 0.0 | 0.00 | 0.69 | 0.00 | 79 | 1011.2 |
| 20260509050033 | 70 | 0 | 0.0 | 1.0 | 0.00 | 0.69 | 0.00 | 79 | 1011.6 |
| 20260509044538 | 70 | 0 | 0.0 | 0.0 | 0.00 | 0.69 | 0.69 | 78 | 1010.0 |
| 20260509043034 | 71 | 0 | 0.0 | 0.0 | 0.00 | 0.69 | 0.69 | 77 | 1010.1 |
| 20260509041538 | 71 | 0 | 0.0 | 2.0 | 0.00 | 0.69 | 0.69 | 77 | 1009.6 |
| 20260509040039 | 71 | 0 | 0.0 | 2.0 | 0.00 | 0.69 | 0.69 | 76 | 1009.7 |
| 20260509034538 | 72 | 0 | 0.0 | 1.0 | 0.00 | 0.69 | 0.69 | 76 | 1009.5 |
| 20260509033038 | 72 | 172 | 0.0 | 0.0 | 0.00 | 0.69 | 0.69 | 77 | 1010.1 |
| 20260509031537 | 71 | 0 | 0.0 | 1.0 | 0.00 | 0.69 | 0.69 | 76 | 1010.1 |
| 20260509030035 | 71 | 0 | 0.0 | 1.0 | 0.00 | 0.69 | 0.69 | 76 | 1009.3 |
| 20260509024538 | 72 | 0 | 0.0 | 0.0 | 0.00 | 0.69 | 0.69 | 75 | 1009.0 |
| 20260509023039 | 72 | 0 | 0.0 | 2.0 | 0.00 | 0.69 | 0.69 | 75 | 1008.5 |
| 20260509021538 | 72 | 0 | 0.0 | 2.0 | 0.00 | 0.69 | 0.69 | 75 | 1008.1 |
| 20260509020039 | 72 | 0 | 0.0 | 1.0 | 0.00 | 0.69 | 0.69 | 74 | 1007.9 |
| 20260509014535 | 72 | 0 | 0.0 | 3.0 | 0.00 | 0.69 | 0.69 | 74 | 1007.7 |
| 20260509013034 | 72 | 0 | 0.0 | 3.0 | 0.00 | 0.69 | 0.69 | 73 | 1008.4 |
| 20260509011538 | 72 | 0 | 0.0 | 1.0 | 0.00 | 0.69 | 0.69 | 73 | 1008.6 |
| 20260509010038 | 72 | 0 | 0.0 | 0.0 | 0.00 | 0.69 | 0.69 | 72 | 1008.2 |
| 20260509004540 | 73 | 0 | 0.0 | 4.0 | 0.00 | 0.69 | 0.69 | 71 | 1008.0 |
| 20260509003037 | 73 | 37 | 0.0 | 4.0 | 0.00 | 0.69 | 0.69 | 70 | 1007.7 |
| 20260509001532 | 74 | 0 | 0.0 | 4.0 | 0.00 | 0.69 | 0.69 | 69 | 1007.6 |
| 20260509000034 | 74 | 0 | 1.0 | 5.0 | 0.00 | 0.69 | 0.69 | 69 | 1007.6 |
| 20260508234539 | 74 | 65 | 1.0 | 6.0 | 0.00 | 0.69 | 0.69 | 69 | 1007.9 |
| 20260508233037 | 74 | 89 | 1.0 | 6.0 | 0.00 | 0.69 | 0.69 | 68 | 1008.0 |
| 20260508231540 | 75 | 36 | 2.0 | 8.0 | 0.00 | 0.69 | 0.69 | 67 | 1008.1 |
| 20260508230051 | 76 | 96 | 2.0 | 7.0 | 0.00 | 0.69 | 0.69 | 66 | 1008.1 |
| 20260508224537 | 77 | 121 | 1.0 | 7.0 | 0.00 | 0.69 | 0.69 | 64 | 1008.1 |
| 20260508223043 | 77 | 321 | 1.0 | 6.0 | 0.00 | 0.69 | 0.69 | 63 | 1008.2 |
| 20260508221538 | 77 | 72 | 2.0 | 12.0 | 0.00 | 0.69 | 0.69 | 62 | 1008.3 |
| 20260508220039 | 77 | 82 | 1.0 | 7.0 | 0.00 | 0.69 | 0.69 | 63 | 1008.3 |
| 20260508214545 | 76 | 11 | 1.0 | 8.0 | 0.00 | 0.69 | 0.69 | 64 | 1008.3 |
| 20260508213047 | 76 | 91 | 1.0 | 6.0 | 0.00 | 0.69 | 0.69 | 62 | 1008.5 |
| 20260508211541 | 75 | 0 | 1.0 | 5.0 | 0.00 | 0.69 | 0.69 | 64 | 1008.7 |
| 20260508210035 | 76 | 110 | 2.0 | 9.0 | 0.00 | 0.69 | 0.69 | 63 | 1008.7 |